Time;durP1;ratioP1;P1;durP2;ratioP2;P2;SDS_P1;SDS_P2;PMS_P1;PMS_P2;Temp;Humidity;BMP_temperature;BMP_pressure;BME280_temperature;BME280_humidity;BME280_pressure;Samples;Min_cycle;Max_cycle;Signal;HPM_P1;HPM_P2
2022/03/02 00:00:52;;;;;;;1999.90;999.90;;;;;;;-1.68;43.68;102428.94;5018553;28;98718;-70
2022/03/02 00:03:19;;;;;;;1999.90;999.90;;;;;;;-1.69;44.32;102423.56;5015911;28;98345;-70
2022/03/02 00:05:47;;;;;;;1999.90;999.90;;;;;;;-1.72;44.46;102423.28;5019992;27;99553;-70
2022/03/02 00:08:15;;;;;;;1999.90;999.90;;;;;;;-1.76;44.26;102421.16;5018322;27;101568;-70
2022/03/02 00:10:42;;;;;;;1999.90;999.90;;;;;;;-1.77;43.86;102419.28;5021178;27;98251;-70
2022/03/02 00:13:10;;;;;;;1999.90;999.90;;;;;;;-1.76;44.34;102421.16;5021647;27;99033;-70
2022/03/02 00:15:38;;;;;;;1999.90;999.90;;;;;;;-1.79;44.60;102421.75;5022052;27;97711;-71
2022/03/02 00:18:07;;;;;;;1999.90;999.90;;;;;;;-1.81;44.34;102418.09;5017638;28;99838;-71
2022/03/02 00:20:35;;;;;;;1999.90;999.90;;;;;;;-1.82;44.55;102412.72;5019264;28;97120;-71
2022/03/02 00:23:03;;;;;;;1999.90;999.90;;;;;;;-1.83;44.74;102410.91;5021105;28;97760;-70
2022/03/02 00:25:31;;;;;;;1999.90;999.90;;;;;;;-1.83;44.10;102405.69;5020456;27;98689;-71
2022/03/02 00:27:59;;;;;;;1999.90;999.90;;;;;;;-1.85;44.36;102406.44;5020669;27;99145;-71
2022/03/02 00:30:28;;;;;;;1999.90;999.90;;;;;;;-1.86;44.30;102411.50;5018445;27;97331;-70
2022/03/02 00:32:56;;;;;;;1999.90;999.90;;;;;;;-1.85;43.94;102408.13;5019660;28;96923;-71
2022/03/02 00:35:25;;;;;;;1999.90;999.90;;;;;;;-1.82;44.69;102405.81;5018783;28;98900;-70
2022/03/02 00:37:53;;;;;;;1999.90;999.90;;;;;;;-1.85;43.92;102403.81;5025806;27;97515;-70
2022/03/02 00:40:21;;;;;;;1999.90;999.90;;;;;;;-1.84;44.42;102399.53;5025719;28;97152;-70
2022/03/02 00:42:49;;;;;;;1999.90;999.90;;;;;;;-1.38;43.22;102395.31;5022907;28;96917;-70
2022/03/02 00:45:17;;;;;;;1999.90;999.90;;;;;;;-1.63;43.63;102390.25;5023532;28;97489;-69
2022/03/02 00:47:45;;;;;;;1999.90;999.90;;;;;;;-1.72;44.38;102395.47;5019098;28;99399;-70
2022/03/02 00:50:14;;;;;;;1999.90;999.90;;;;;;;-1.77;44.63;102390.59;5020341;27;97853;-70
2022/03/02 00:52:44;;;;;;;1999.90;999.90;;;;;;;-1.83;43.90;102390.91;5020832;28;97547;-69
2022/03/02 00:55:12;;;;;;;1999.90;999.90;;;;;;;-1.85;44.29;102388.16;5019145;28;97826;-68
2022/03/02 00:57:40;;;;;;;1999.90;999.90;;;;;;;-1.84;44.53;102383.88;5017493;28;97990;-68
2022/03/02 01:00:08;;;;;;;1999.90;999.90;;;;;;;-1.83;44.03;102383.09;5018685;27;96764;-69
2022/03/02 01:02:36;;;;;;;1999.90;999.90;;;;;;;-1.83;44.64;102382.19;5017534;28;97747;-69
2022/03/02 01:05:05;;;;;;;1999.90;999.90;;;;;;;-1.87;44.88;102374.06;5018444;28;99664;-70
2022/03/02 01:07:35;;;;;;;1999.90;999.90;;;;;;;-1.93;44.35;102368.28;5016869;28;97438;-70
2022/03/02 01:10:05;;;;;;;1999.90;999.90;;;;;;;-1.95;44.39;102382.88;5018086;28;99490;-69
2022/03/02 01:12:34;;;;;;;1999.90;999.90;;;;;;;-1.96;44.78;102385.28;5020206;28;96808;-70
2022/03/02 01:15:03;;;;;;;1999.90;999.90;;;;;;;-1.97;44.79;102386.06;5016228;27;98838;-70
2022/03/02 01:17:30;;;;;;;1999.90;999.90;;;;;;;-2.00;44.29;102385.78;5017515;28;99110;-71
2022/03/02 01:19:58;;;;;;;1999.90;999.90;;;;;;;-1.99;44.54;102387.63;5017795;28;96967;-71
2022/03/02 01:22:27;;;;;;;1999.90;999.90;;;;;;;-1.96;44.87;102393.13;5016880;27;97274;-71
2022/03/02 01:24:55;;;;;;;1999.90;999.90;;;;;;;-1.92;44.11;102379.59;5020343;27;98958;-70
2022/03/02 01:27:24;;;;;;;1999.90;999.90;;;;;;;-1.90;44.30;102376.38;5017395;28;98860;-69
2022/03/02 01:29:52;;;;;;;1999.90;999.90;;;;;;;-1.47;43.46;102372.66;5017396;28;99258;-71
2022/03/02 01:32:20;;;;;;;1999.90;999.90;;;;;;;-1.73;44.08;102366.63;5019932;28;97168;-70
2022/03/02 01:34:48;;;;;;;1999.90;999.90;;;;;;;-1.79;44.10;102355.59;5020134;27;97647;-70
2022/03/02 01:37:16;;;;;;;1999.90;999.90;;;;;;;-1.80;44.71;102361.63;5013845;28;99375;-71
2022/03/02 01:39:44;;;;;;;1999.90;999.90;;;;;;;-1.79;44.54;102355.59;5014886;28;98447;-70
2022/03/02 01:42:12;;;;;;;1999.90;999.90;;;;;;;-1.82;44.60;102350.09;5016582;27;97771;-71
2022/03/02 01:44:42;;;;;;;1999.90;999.90;;;;;;;-1.82;44.67;102346.72;5014185;28;99028;-70
2022/03/02 01:47:28;;;;;;;1999.90;999.90;;;;;;;-1.82;44.55;102351.94;5018305;28;98612;-70
2022/03/02 01:50:12;;;;;;;1999.90;999.90;;;;;;;-1.82;44.76;102346.72;5019985;27;97027;-71
2022/03/02 01:52:57;;;;;;;1999.90;999.90;;;;;;;-1.83;44.74;102343.06;5030526;27;97597;-70
2022/03/02 01:55:25;;;;;;;1999.90;999.90;;;;;;;-1.85;44.51;102338.59;5016962;28;100753;-70
2022/03/02 01:57:54;;;;;;;1999.90;999.90;;;;;;;-1.86;44.80;102336.78;5017512;27;97865;-70
2022/03/02 02:00:25;;;;;;;1999.90;999.90;;;;;;;-1.85;44.23;102338.59;5035020;27;97396;-70
2022/03/02 02:02:53;;;;;;;1999.90;999.90;;;;;;;-1.83;44.48;102341.34;5019995;28;97637;-70
2022/03/02 02:05:21;;;;;;;1999.90;999.90;;;;;;;-1.85;44.69;102341.22;5021991;27;97801;-71
2022/03/02 02:07:49;;;;;;;1999.90;999.90;;;;;;;-1.84;44.62;102336.94;5021539;28;97541;-70
2022/03/02 02:10:17;;;;;;;1999.90;999.90;;;;;;;-1.83;44.50;102327.41;5037651;27;99148;-70
2022/03/02 02:12:45;;;;;;;1999.90;999.90;;;;;;;-1.83;44.43;102327.41;5022851;28;97142;-70
2022/03/02 02:15:13;;;;;;;1999.90;999.90;;;;;;;-1.89;44.05;102328.63;5019900;28;98922;-71
2022/03/02 02:17:42;;;;;;;1999.90;999.90;;;;;;;-1.93;44.36;102326.53;5038254;27;99814;-69
2022/03/02 02:20:11;;;;;;;1999.90;999.90;;;;;;;-1.96;44.99;102321.00;5023338;28;97524;-70
2022/03/02 02:22:42;;;;;;;1999.90;999.90;;;;;;;-1.96;44.48;102320.09;5022109;27;98040;-70
2022/03/02 02:25:10;;;;;;;1999.90;999.90;;;;;;;-1.94;44.73;102319.47;5022511;27;99068;-70
2022/03/02 02:27:38;;;;;;;1999.90;999.90;;;;;;;-1.95;44.83;102317.66;5020757;28;100666;-70
2022/03/02 02:30:06;;;;;;;1999.90;999.90;;;;;;;-1.96;44.86;102326.22;5022515;27;97233;-68
2022/03/02 02:32:36;;;;;;;1999.90;999.90;;;;;;;-1.96;44.29;102314.88;5022941;27;98503;-68
2022/03/02 02:35:04;;;;;;;1999.90;999.90;;;;;;;-1.98;44.86;102316.44;5039803;27;98955;-71
2022/03/02 02:37:34;;;;;;;1999.90;999.90;;;;;;;-2.00;44.59;102312.75;5023741;27;100731;-70
2022/03/02 02:40:06;;;;;;;1999.90;999.90;;;;;;;-2.03;44.59;102313.38;5008057;28;97020;-70
2022/03/02 02:42:34;;;;;;;1999.90;999.90;;;;;;;-2.02;45.22;102312.63;5024047;27;97304;-70
2022/03/02 02:45:03;;;;;;;1999.90;999.90;;;;;;;-2.03;44.77;102308.16;5019697;27;99264;-70
2022/03/02 02:47:31;;;;;;;1999.90;999.90;;;;;;;-2.04;45.33;102295.91;5020555;27;97768;-70
2022/03/02 02:49:59;;;;;;;1999.90;999.90;;;;;;;-2.02;44.51;102301.25;5021592;28;96990;-71
2022/03/02 02:52:27;;;;;;;1999.90;999.90;;;;;;;-2.03;44.46;102295.13;5022114;28;96937;-71
2022/03/02 02:54:55;;;;;;;1999.90;999.90;;;;;;;-2.00;44.46;102297.13;5020684;27;97668;-70
2022/03/02 02:57:24;;;;;;;1999.90;999.90;;;;;;;-2.00;45.05;102298.00;5019882;27;99548;-69
2022/03/02 02:59:51;;;;;;;1999.90;999.90;;;;;;;-2.02;44.85;102283.00;5022264;28;97873;-69
2022/03/02 03:02:19;;;;;;;1999.90;999.90;;;;;;;-2.03;44.94;102282.09;5017146;27;97792;-70
2022/03/02 03:04:47;;;;;;;1999.90;999.90;;;;;;;-2.04;45.46;102282.88;5015873;27;99994;-71
2022/03/02 03:07:15;;;;;;;1999.90;999.90;;;;;;;-2.03;44.94;102275.94;5018826;27;103070;-70
2022/03/02 03:09:43;;;;;;;1999.90;999.90;;;;;;;-2.04;45.57;102275.03;5001652;28;97444;-70
2022/03/02 03:12:11;;;;;;;1999.90;999.90;;;;;;;-2.01;45.21;102274.41;5021682;27;97127;-70
2022/03/02 03:14:40;;;;;;;1999.90;999.90;;;;;;;-2.03;44.38;102269.03;5019412;27;98097;-70
2022/03/02 03:17:08;;;;;;;1999.90;999.90;;;;;;;-2.07;45.26;102264.31;5002809;28;99296;-70
2022/03/02 03:19:35;;;;;;;1999.90;999.90;;;;;;;-2.08;44.85;102257.25;5019546;27;97497;-70
2022/03/02 03:22:04;;;;;;;1999.90;999.90;;;;;;;-2.13;44.95;102261.13;5021273;28;97364;-68
2022/03/02 03:24:32;;;;;;;1999.90;999.90;;;;;;;-2.14;44.68;102263.56;5018182;28;100490;-70
2022/03/02 03:27:00;;;;;;;1999.90;999.90;;;;;;;-2.14;45.09;102263.56;5020710;28;100312;-68
2022/03/02 03:29:27;;;;;;;1999.90;999.90;;;;;;;-2.16;45.39;102262.50;5020743;27;96727;-68
2022/03/02 03:31:57;;;;;;;1999.90;999.90;;;;;;;-2.16;45.29;102263.44;5003565;28;97615;-70
2022/03/02 03:34:24;;;;;;;1999.90;999.90;;;;;;;-2.17;45.25;102253.78;5017524;28;100124;-70
2022/03/02 03:36:52;;;;;;;1999.90;999.90;;;;;;;-2.18;45.37;102258.81;5019683;27;98214;-70
2022/03/02 03:39:20;;;;;;;1999.90;999.90;;;;;;;-2.21;45.18;102264.66;5019121;28;97082;-70
2022/03/02 03:41:48;;;;;;;1999.90;999.90;;;;;;;-2.22;45.06;102273.25;5021474;27;98017;-70
2022/03/02 03:44:15;;;;;;;1999.90;999.90;;;;;;;-2.24;45.34;102266.97;5017441;27;99318;-71
2022/03/02 03:46:43;;;;;;;1999.90;999.90;;;;;;;-2.27;44.86;102270.97;5003824;27;99760;-70
2022/03/02 03:49:12;;;;;;;1999.90;999.90;;;;;;;-2.25;45.29;102269.41;5001843;28;98663;-70
2022/03/02 03:51:40;;;;;;;1999.90;999.90;;;;;;;-2.25;45.16;102269.41;5022303;27;97040;-70
2022/03/02 03:54:09;;;;;;;1999.90;999.90;;;;;;;-2.25;45.47;102272.94;5019144;27;101121;-70
2022/03/02 03:56:36;;;;;;;1999.90;999.90;;;;;;;-2.25;44.85;102272.94;5001074;27;99596;-70
2022/03/02 03:59:05;;;;;;;1999.90;999.90;;;;;;;-2.26;45.22;102264.97;5019299;27;98281;-70
2022/03/02 04:01:32;;;;;;;1999.90;999.90;;;;;;;-2.26;45.31;102270.19;5035800;27;96844;-71
2022/03/02 04:04:01;;;;;;;1999.90;999.90;;;;;;;-2.27;44.95;102270.97;5019361;27;97787;-71
2022/03/02 04:06:30;;;;;;;1999.90;999.90;;;;;;;-2.30;45.37;102262.84;5000696;28;101177;-71
2022/03/02 04:08:59;;;;;;;1999.90;999.90;;;;;;;-2.31;45.53;102261.91;5000660;28;97208;-71
2022/03/02 04:11:26;;;;;;;1999.90;999.90;;;;;;;-2.31;44.99;102259.31;5020354;27;97318;-70
2022/03/02 04:13:54;;;;;;;1999.90;999.90;;;;;;;-2.29;45.67;102265.59;5018180;27;98925;-71
2022/03/02 04:16:22;;;;;;;1999.90;999.90;;;;;;;-2.28;45.14;102254.41;5017836;27;99329;-68
2022/03/02 04:18:50;;;;;;;1999.90;999.90;;;;;;;-2.24;45.01;102260.84;5016826;28;97149;-68
2022/03/02 04:21:17;;;;;;;1999.90;999.90;;;;;;;-2.25;45.36;102251.16;5038255;27;97500;-71
2022/03/02 04:23:47;;;;;;;1999.90;999.90;;;;;;;-2.23;44.91;102253.16;5020063;27;99007;-71
2022/03/02 04:26:15;;;;;;;1999.90;999.90;;;;;;;-2.22;45.66;102247.19;5018719;28;98034;-70
2022/03/02 04:28:42;;;;;;;1999.90;999.90;;;;;;;-2.22;45.25;102247.19;5017563;28;100734;-71
2022/03/02 04:31:10;;;;;;;1999.90;999.90;;;;;;;-2.24;45.08;102245.19;5018691;27;97344;-70
2022/03/02 04:33:38;;;;;;;1999.90;999.90;;;;;;;-2.29;45.33;102242.13;5019811;27;98993;-68
2022/03/02 04:36:07;;;;;;;1999.90;999.90;;;;;;;-2.31;45.76;102233.25;5017596;28;98210;-69
2022/03/02 04:38:34;;;;;;;1999.90;999.90;;;;;;;-2.32;45.83;102225.28;5018455;28;97885;-71
2022/03/02 04:41:04;;;;;;;1999.90;999.90;;;;;;;-2.34;45.70;102226.81;5019736;28;97841;-71
2022/03/02 04:43:31;;;;;;;1999.90;999.90;;;;;;;-2.36;45.15;102225.78;5019700;28;99229;-69
2022/03/02 04:45:59;;;;;;;1999.90;999.90;;;;;;;-2.36;46.16;102229.28;5022782;28;98834;-70
2022/03/02 04:48:27;;;;;;;1999.90;999.90;;;;;;;-2.37;45.98;102224.88;5039342;27;98229;-71
2022/03/02 04:50:55;;;;;;;1999.90;999.90;;;;;;;-2.38;45.85;102222.13;5020762;28;97221;-70
2022/03/02 04:53:23;;;;;;;1999.90;999.90;;;;;;;-2.40;45.30;102221.06;5019650;28;97827;-70
2022/03/02 04:55:52;;;;;;;1999.90;999.90;;;;;;;-2.43;45.92;102221.66;5021250;28;100419;-69
2022/03/02 04:58:22;;;;;;;1999.90;999.90;;;;;;;-2.45;45.84;102219.66;5020269;28;97259;-70
2022/03/02 05:00:50;;;;;;;1999.90;999.90;;;;;;;-2.49;45.57;102218.47;5018488;27;99098;-71
2022/03/02 05:03:18;;;;;;;1999.90;999.90;;;;;;;-2.53;45.21;102218.97;5017906;27;101033;-69
2022/03/02 05:05:46;;;;;;;1999.90;999.90;;;;;;;-2.55;45.96;102223.09;5015778;27;100112;-69
2022/03/02 05:08:14;;;;;;;1999.90;999.90;;;;;;;-2.59;45.95;102223.56;5019370;28;96846;-69
2022/03/02 05:10:42;;;;;;;1999.90;999.90;;;;;;;-2.62;45.61;102215.47;5021255;27;97817;-68
2022/03/02 05:13:10;;;;;;;1999.90;999.90;;;;;;;-2.64;45.96;102227.44;5013871;28;98886;-68
2022/03/02 05:15:39;;;;;;;1999.90;999.90;;;;;;;-2.63;46.06;102224.03;5017594;27;99963;-68
2022/03/02 05:18:07;;;;;;;1999.90;999.90;;;;;;;-2.63;45.95;102221.44;5004382;28;97460;-69
2022/03/02 05:20:35;;;;;;;1999.90;999.90;;;;;;;-2.61;45.93;102229.41;5013605;28;96991;-68
2022/03/02 05:23:03;;;;;;;1999.90;999.90;;;;;;;-2.61;45.74;102230.31;5012757;28;97999;-69
2022/03/02 05:25:30;;;;;;;1999.90;999.90;;;;;;;-2.60;45.74;102226.03;5012844;27;99705;-69
2022/03/02 05:27:58;;;;;;;1999.90;999.90;;;;;;;-2.61;45.80;102230.31;5015402;28;98141;-69
2022/03/02 05:30:26;;;;;;;1999.90;999.90;;;;;;;-2.64;45.72;102227.44;5016871;28;98398;-69
2022/03/02 05:32:55;;;;;;;1999.90;999.90;;;;;;;-2.67;45.60;102232.31;5018991;28;99730;-69
2022/03/02 05:35:23;;;;;;;1999.90;999.90;;;;;;;-2.65;46.30;102225.56;5013361;28;98406;-68
2022/03/02 05:37:50;;;;;;;1999.90;999.90;;;;;;;-2.62;46.14;102230.19;5035567;27;97867;-69
2022/03/02 05:40:20;;;;;;;1999.90;999.90;;;;;;;-2.61;46.10;102230.31;5016941;28;97828;-68
2022/03/02 05:42:53;;;;;;;1999.90;999.90;;;;;;;-2.61;45.78;102232.94;5021349;28;99394;-68
2022/03/02 05:45:21;;;;;;;1999.90;999.90;;;;;;;-2.59;45.41;102236.59;5004499;28;99373;-68
2022/03/02 05:47:49;;;;;;;1999.90;999.90;;;;;;;-2.58;45.45;102235.81;5026035;28;97866;-69
2022/03/02 05:50:18;;;;;;;1999.90;999.90;;;;;;;-2.56;45.96;102239.50;5022640;28;97984;-70
2022/03/02 05:52:46;;;;;;;1999.90;999.90;;;;;;;-2.55;45.74;102233.53;5023165;28;97912;-71
2022/03/02 05:55:14;;;;;;;1999.90;999.90;;;;;;;-2.56;45.38;102241.22;5020295;27;98344;-68
2022/03/02 05:57:41;;;;;;;1999.90;999.90;;;;;;;-2.55;45.81;102241.34;5019337;28;98240;-68
2022/03/02 06:00:10;;;;;;;1999.90;999.90;;;;;;;-2.52;45.95;102239.03;5024165;27;96961;-67
2022/03/02 06:02:38;;;;;;;1999.90;999.90;;;;;;;-2.51;45.57;102234.75;5025117;28;97269;-67
2022/03/02 06:05:09;;;;;;;1999.90;999.90;;;;;;;-2.52;45.53;102248.53;5020704;28;98417;-68
2022/03/02 06:07:38;;;;;;;1999.90;999.90;;;;;;;-2.54;45.41;102240.56;5021495;27;97247;-68
2022/03/02 06:10:07;;;;;;;1999.90;999.90;;;;;;;-2.51;45.85;102255.59;5022569;28;97783;-67
2022/03/02 06:12:35;;;;;;;1999.90;999.90;;;;;;;-2.50;46.03;102253.13;5020708;28;100543;-71
2022/03/02 06:15:04;;;;;;;1999.90;999.90;;;;;;;-2.52;45.67;102256.34;5021936;28;98285;-69
2022/03/02 06:17:32;;;;;;;1999.90;999.90;;;;;;;-2.53;45.74;102255.44;5022491;28;98465;-69
2022/03/02 06:20:00;;;;;;;1999.90;999.90;;;;;;;-2.55;46.27;102251.78;5021569;28;97619;-69
2022/03/02 06:22:32;;;;;;;1999.90;999.90;;;;;;;-2.53;46.15;102246.69;5021539;28;99422;-69
2022/03/02 06:25:02;;;;;;;1999.90;999.90;;;;;;;-2.52;45.36;102253.72;5024828;27;97586;-69
2022/03/02 06:27:30;;;;;;;1999.90;999.90;;;;;;;-2.52;46.10;102248.53;5021499;28;96887;-67
2022/03/02 06:29:57;;;;;;;1999.90;999.90;;;;;;;-2.49;45.45;102254.06;5021492;28;96947;-68
2022/03/02 06:32:25;;;;;;;1999.90;999.90;;;;;;;-2.49;45.66;102259.25;5006197;28;99705;-68
2022/03/02 06:34:54;;;;;;;1999.90;999.90;;;;;;;-2.50;45.33;102258.34;5022314;27;97168;-67
2022/03/02 06:37:22;;;;;;;1999.90;999.90;;;;;;;-2.48;45.49;102256.78;5023903;27;97508;-68
2022/03/02 06:39:49;;;;;;;1999.90;999.90;;;;;;;-2.47;46.13;102249.91;5023638;27;97391;-67
2022/03/02 06:42:23;;;;;;;1999.90;999.90;;;;;;;-2.48;45.93;102246.38;5007245;28;100300;-68
2022/03/02 06:44:55;;;;;;;1999.90;999.90;;;;;;;-2.46;46.26;102247.44;5024850;27;97325;-68
2022/03/02 06:47:27;;;;;;;1999.90;999.90;;;;;;;-2.43;46.01;102244.19;5024753;27;97081;-68
2022/03/02 06:50:03;;;;;;;1999.90;999.90;;;;;;;-2.46;45.59;102243.91;5021193;28;97697;-68
2022/03/02 06:52:35;;;;;;;1999.90;999.90;;;;;;;-2.45;45.62;102243.13;5024535;28;98862;-69
2022/03/02 06:55:06;;;;;;;1999.90;999.90;;;;;;;-2.43;45.72;102250.34;5033481;27;99268;-68
2022/03/02 06:57:36;;;;;;;1999.90;999.90;;;;;;;-2.42;45.36;102251.25;5032832;28;96756;-67
2022/03/02 07:00:14;;;;;;;1999.90;999.90;;;;;;;-2.44;45.43;102255.41;5031465;28;98191;-67
2022/03/02 07:02:48;;;;;;;1999.90;999.90;;;;;;;-2.45;46.00;102258.75;5028656;28;97662;-69
2022/03/02 07:05:17;;;;;;;1999.90;999.90;;;;;;;-2.42;45.41;102254.78;5023284;27;97801;-70
2022/03/02 07:07:45;;;;;;;1999.90;999.90;;;;;;;-2.42;45.67;102251.25;5024567;28;98072;-68
2022/03/02 07:10:13;;;;;;;1999.90;999.90;;;;;;;-2.41;45.43;102259.22;5024450;27;97727;-68
2022/03/02 07:12:43;;;;;;;1999.90;999.90;;;;;;;-2.41;46.00;102264.44;5025372;28;99330;-68
2022/03/02 07:15:12;;;;;;;1999.90;999.90;;;;;;;-2.39;45.79;102262.91;5023274;28;97802;-68
2022/03/02 07:17:40;;;;;;;1999.90;999.90;;;;;;;-2.37;45.50;102256.16;5005827;28;97812;-70
2022/03/02 07:20:09;;;;;;;1999.90;999.90;;;;;;;-2.35;45.38;102252.00;5021764;27;101259;-68
2022/03/02 07:22:39;;;;;;;1999.90;999.90;;;;;;;-2.33;45.41;102262.56;5023699;27;97031;-68
2022/03/02 07:25:08;;;;;;;1999.90;999.90;;;;;;;-2.32;45.91;102260.09;5039679;27;98898;-68
2022/03/02 07:27:38;;;;;;;1999.90;999.90;;;;;;;-2.30;46.01;102269.00;5025322;28;97578;-66
2022/03/02 07:30:09;;;;;;;1999.90;999.90;;;;;;;-2.28;45.24;102270.06;5023025;28;96949;-66
2022/03/02 07:32:41;;;;;;;1999.90;999.90;;;;;;;-2.28;45.58;102257.03;5022929;28;96786;-66
2022/03/02 07:35:09;;;;;;;1999.90;999.90;;;;;;;-2.28;45.07;102259.63;5024060;28;97829;-68
2022/03/02 07:37:38;;;;;;;1999.90;999.90;;;;;;;-2.25;44.99;102254.69;5023859;28;96844;-68
2022/03/02 07:40:07;;;;;;;1999.90;999.90;;;;;;;-2.24;45.54;102258.22;5025121;28;97112;-69
2022/03/02 07:42:35;;;;;;;1999.90;999.90;;;;;;;-2.25;45.77;102262.53;5024844;28;99060;-69
2022/03/02 07:45:05;;;;;;;1999.90;999.90;;;;;;;-2.24;45.48;102259.16;5023069;28;97690;-70
2022/03/02 07:47:34;;;;;;;1999.90;999.90;;;;;;;-2.24;45.62;102259.16;5022954;28;97595;-68
2022/03/02 07:50:02;;;;;;;1999.90;999.90;;;;;;;-2.24;45.95;102253.94;5023226;28;98326;-69
2022/03/02 07:52:31;;;;;;;1999.90;999.90;;;;;;;-2.21;46.01;102261.13;5023238;28;101074;-69
2022/03/02 07:55:07;;;;;;;1999.90;999.90;;;;;;;-2.20;45.11;102261.25;5022974;27;98500;-70
2022/03/02 07:57:35;;;;;;;1999.90;999.90;;;;;;;-2.15;45.72;102260.06;5023436;28;97251;-71
2022/03/02 08:00:05;;;;;;;1999.90;999.90;;;;;;;-2.10;45.78;102258.81;5023377;27;97503;-68
2022/03/02 08:02:34;;;;;;;1999.90;999.90;;;;;;;-2.03;45.64;102261.22;5023775;28;98829;-67
2022/03/02 08:05:04;;;;;;;1999.90;999.90;;;;;;;-1.99;45.53;102255.53;5025287;27;98975;-69
2022/03/02 08:07:31;;;;;;;1999.90;999.90;;;;;;;-1.93;45.87;102248.28;5025564;28;97332;-68
2022/03/02 08:09:59;;;;;;;1999.90;999.90;;;;;;;-1.87;45.49;102240.13;5024528;27;97285;-68
2022/03/02 08:12:27;;;;;;;1999.90;999.90;;;;;;;-1.83;45.15;102244.81;5021043;28;99561;-68
2022/03/02 08:14:55;;;;;;;1999.90;999.90;;;;;;;-1.82;45.09;102250.97;5021841;27;98062;-69
2022/03/02 08:17:22;;;;;;;1999.90;999.90;;;;;;;-1.82;45.54;102256.19;5020982;28;101140;-69
2022/03/02 08:19:52;;;;;;;1999.90;999.90;;;;;;;-1.83;45.11;102244.81;5021454;28;98264;-68
2022/03/02 08:22:22;;;;;;;1999.90;999.90;;;;;;;-1.82;44.78;102242.34;5022342;28;97485;-68
2022/03/02 08:24:55;;;;;;;1999.90;999.90;;;;;;;-1.80;45.65;102246.81;5022337;28;98782;-68
2022/03/02 08:27:23;;;;;;;1999.90;999.90;;;;;;;-1.77;45.00;102249.69;5022664;28;96883;-68
2022/03/02 08:29:56;;;;;;;1999.90;999.90;;;;;;;-1.76;45.57;102241.13;5023548;28;97029;-68
2022/03/02 08:32:24;;;;;;;1999.90;999.90;;;;;;;-1.73;45.12;102244.94;5022392;28;97665;-69
2022/03/02 08:34:54;;;;;;;1999.90;999.90;;;;;;;-1.72;44.69;102243.25;5021949;28;96993;-69
2022/03/02 08:37:22;;;;;;;1999.90;999.90;;;;;;;-1.70;44.92;102236.44;5022010;28;96790;-68
2022/03/02 08:39:50;;;;;;;1999.90;999.90;;;;;;;-1.68;45.02;102225.38;5021328;28;98068;-68
2022/03/02 08:42:17;;;;;;;1999.90;999.90;;;;;;;-1.66;45.32;102234.28;5021191;27;97903;-68
2022/03/02 08:44:46;;;;;;;1999.90;999.90;;;;;;;-1.63;45.24;102221.50;5020840;28;101005;-68
2022/03/02 08:47:14;;;;;;;1999.90;999.90;;;;;;;-1.55;44.80;102227.44;5022088;28;97131;-68
2022/03/02 08:49:42;;;;;;;1999.90;999.90;;;;;;;-1.52;44.74;102232.97;5022053;27;98405;-66
2022/03/02 08:52:12;;;;;;;1999.90;999.90;;;;;;;-1.49;44.69;102228.00;5023267;28;99530;-68
2022/03/02 08:54:45;;;;;;;1999.90;999.90;;;;;;;-1.46;45.08;102229.22;5020261;28;99860;-69
2022/03/02 08:57:12;;;;;;;1999.90;999.90;;;;;;;-1.41;45.04;102237.44;5021155;28;97206;-68
2022/03/02 08:59:42;;;;;;;1999.90;999.90;;;;;;;-1.37;44.79;102236.94;5022716;28;96897;-69
2022/03/02 09:02:10;;;;;;;1999.90;999.90;;;;;;;-1.35;44.67;102233.72;5019644;28;98093;-69
2022/03/02 09:04:39;;;;;;;1999.90;999.90;;;;;;;-1.32;45.02;102234.00;5018720;28;97977;-69
2022/03/02 09:07:07;;;;;;;1999.90;999.90;;;;;;;-1.27;44.65;102234.41;5022792;28;97531;-68
2022/03/02 09:09:36;;;;;;;1999.90;999.90;;;;;;;-1.24;45.08;102247.75;5022662;28;97401;-68
2022/03/02 09:12:04;;;;;;;1999.90;999.90;;;;;;;-1.22;44.61;102238.38;5024237;27;96899;-68
2022/03/02 09:14:32;;;;;;;1999.90;999.90;;;;;;;-1.18;44.52;102235.25;5022785;28;99714;-68
2022/03/02 09:17:00;;;;;;;1999.90;999.90;;;;;;;-1.16;45.14;102236.31;5025246;28;97165;-68
2022/03/02 09:19:29;;;;;;;1999.90;999.90;;;;;;;-1.10;44.65;102226.41;5024737;28;96923;-68
2022/03/02 09:21:57;;;;;;;1999.90;999.90;;;;;;;-1.05;44.57;102226.03;5025902;27;98815;-68
2022/03/02 09:24:27;;;;;;;1999.90;999.90;;;;;;;-0.99;44.66;102220.44;5024307;28;98787;-68
2022/03/02 09:26:58;;;;;;;1999.90;999.90;;;;;;;-0.97;44.33;102218.91;5025018;28;97584;-68
2022/03/02 09:29:28;;;;;;;1999.90;999.90;;;;;;;-0.93;44.69;102221.00;5024618;27;97178;-68
2022/03/02 09:31:58;;;;;;;1999.90;999.90;;;;;;;-0.90;44.73;102227.44;5025808;28;98671;-67
2022/03/02 09:34:27;;;;;;;1999.90;999.90;;;;;;;-0.89;44.71;102221.44;5023041;28;97480;-68
2022/03/02 09:36:56;;;;;;;1999.90;999.90;;;;;;;-0.84;44.50;102216.59;5025284;27;97864;-68
2022/03/02 09:39:24;;;;;;;1999.90;999.90;;;;;;;-0.81;44.21;102215.19;5026833;27;97744;-68
2022/03/02 09:41:59;;;;;;;1999.90;999.90;;;;;;;-0.76;44.31;102209.47;5025361;27;98176;-68
2022/03/02 09:44:33;;;;;;;1999.90;999.90;;;;;;;-0.72;44.34;102212.47;5026086;27;97584;-69
2022/03/02 09:47:02;;;;;;;1999.90;999.90;;;;;;;-0.68;44.75;102217.19;5025218;28;97168;-68
2022/03/02 09:49:31;;;;;;;1999.90;999.90;;;;;;;-0.65;44.42;102209.63;5026147;28;97130;-68
2022/03/02 09:52:04;;;;;;;1999.90;999.90;;;;;;;-0.62;44.32;102211.59;5025793;28;97067;-68
2022/03/02 09:54:36;;;;;;;1999.90;999.90;;;;;;;-0.54;43.93;102200.13;5024629;28;97555;-67
2022/03/02 09:57:08;;;;;;;1999.90;999.90;;;;;;;-0.52;44.37;102201.19;5022850;28;97800;-68
2022/03/02 09:59:38;;;;;;;1999.90;999.90;;;;;;;-0.49;44.12;102191.91;5039515;27;97159;-66
2022/03/02 10:02:08;;;;;;;1999.90;999.90;;;;;;;-0.43;43.95;102196.75;5022979;28;97707;-67
2022/03/02 10:04:36;;;;;;;1999.90;999.90;;;;;;;-0.39;44.25;102199.75;5020940;27;99987;-66
2022/03/02 10:10:06;;;;;;;1999.90;999.90;;;;;;;-0.33;43.83;102197.69;5022728;28;97729;-66
2022/03/02 10:12:36;;;;;;;1999.90;999.90;;;;;;;-0.27;43.74;102193.00;5024346;27;99476;-67
2022/03/02 10:15:09;;;;;;;1999.90;999.90;;;;;;;-0.21;44.03;102203.97;5021871;28;99572;-67
2022/03/02 10:17:41;;;;;;;1999.90;999.90;;;;;;;-0.15;43.57;102199.25;5020541;28;96818;-66
2022/03/02 10:20:10;;;;;;;1999.90;999.90;;;;;;;-0.07;43.77;102195.63;5020816;28;97893;-67
2022/03/02 10:22:57;;;;;;;1999.90;999.90;;;;;;;-0.05;43.68;102191.44;5023393;27;98411;-67
2022/03/02 10:25:28;;;;;;;1999.90;999.90;;;;;;;0.02;43.71;102188.56;5023452;28;97950;-67
2022/03/02 10:28:04;;;;;;;1999.90;999.90;;;;;;;0.08;43.41;102181.22;5024054;28;96742;-67
2022/03/02 10:30:33;;;;;;;1999.90;999.90;;;;;;;0.16;43.51;102187.09;5041509;27;97011;-69
2022/03/02 10:33:12;;;;;;;1999.90;999.90;;;;;;;0.22;43.32;102179.78;5024679;27;97597;-65
2022/03/02 10:35:50;;;;;;;1999.90;999.90;;;;;;;0.28;43.69;102174.19;5023838;28;97591;-68
2022/03/02 10:38:27;;;;;;;1999.90;999.90;;;;;;;0.34;43.30;102174.72;5022124;28;97105;-67
2022/03/02 10:41:00;;;;;;;1999.90;999.90;;;;;;;0.38;43.31;102172.47;5023062;28;97747;-69
2022/03/02 10:43:36;;;;;;;1999.90;999.90;;;;;;;0.43;43.01;102168.50;5021910;28;97642;-69
2022/03/02 10:46:04;;;;;;;1999.90;999.90;;;;;;;0.52;42.91;102176.25;5006163;28;97909;-69
2022/03/02 10:48:38;;;;;;;1999.90;999.90;;;;;;;0.59;43.26;102174.25;5021918;28;97165;-69
2022/03/02 10:51:06;;;;;;;1999.90;999.90;;;;;;;0.68;43.04;102166.25;5024180;27;96995;-69
2022/03/02 10:53:36;;;;;;;1999.90;999.90;;;;;;;0.78;42.82;102177.59;5024289;28;98700;-69
2022/03/02 10:56:05;;;;;;;1999.90;999.90;;;;;;;0.87;42.54;102166.94;5041353;27;101243;-69
2022/03/02 10:58:35;;;;;;;1999.90;999.90;;;;;;;0.90;42.54;102172.47;5023681;28;97426;-68